Edgewater, New Jersey
Current Conditions -  °F | °C
As of 10:03 PM on Wednesday 22 Oct 2014 (Local Time) from KNYC Reporting Station
Overcast Overcast  
Wind Chill: 51°   Ceiling: 2400
Heat Index: 51°   Visibility: 10mi
Dew Point: 48°   Wind: 8mph
Humidity: 89%   Direction: 360°N
Pressure: 29.77"   Gusts: NA
Location:  40.83°N, 73.97°W
Report Text: KNYC 230203Z AUTO 36007KT 290V060 10SM SCT014 OVC024 11/09 A2977 RMK AO2 RAE0152 P0000 T01060089 $
Loading
Personal Weather Stations






























Interactive Weather Map New forecast layout! Learn more

10-Day Weather Forecast

Advertisements
Track Severe Weather on mobile